Time;durP1;ratioP1;P1;durP2;ratioP2;P2;SDS_P1;SDS_P2;PMS_P1;PMS_P2;Temp;Humidity;BMP_temperature;BMP_pressure;BME280_temperature;BME280_humidity;BME280_pressure;Samples;Min_cycle;Max_cycle;Signal;HPM_P1;HPM_P2
2022/01/04 00:00:10;;;;;;;349.83;131.30;;;;;;;11.11;59.43;99550.56;342682;28;1192;-70
2022/01/04 00:00:21;;;;;;;346.83;124.68;;;;;;;11.10;59.56;99546.25;345289;28;4441;-70
2022/01/04 00:00:31;;;;;;;347.38;126.15;;;;;;;11.09;59.47;99549.78;345462;28;853;-70
2022/01/04 00:00:42;;;;;;;348.47;126.93;;;;;;;11.10;59.48;99551.50;341263;28;826;-70
2022/01/04 00:00:53;;;;;;;350.90;131.03;;;;;;;11.12;59.45;99552.28;342462;28;1352;-70
2022/01/04 00:01:04;;;;;;;351.73;131.70;;;;;;;11.12;59.57;99549.66;341478;28;869;-70
2022/01/04 00:01:14;;;;;;;350.77;132.98;;;;;;;11.11;59.68;99550.56;342429;28;1437;-70
2022/01/04 00:01:25;;;;;;;349.03;131.57;;;;;;;11.11;59.65;99548.81;342697;28;1916;-70
2022/01/04 00:01:35;;;;;;;349.35;133.38;;;;;;;11.12;59.55;99547.03;341419;28;842;-70
2022/01/04 00:01:45;;;;;;;350.23;133.60;;;;;;;11.11;59.58;99547.97;341003;28;1224;-70
2022/01/04 00:01:57;;;;;;;349.80;132.70;;;;;;;11.12;59.64;99547.03;344029;28;811;-70
2022/01/04 00:02:08;;;;;;;349.63;131.23;;;;;;;11.12;59.58;99547.88;341156;28;1504;-70
2022/01/04 00:02:18;;;;;;;349.17;132.13;;;;;;;11.11;59.42;99547.97;342524;28;1838;-70
2022/01/04 00:02:28;;;;;;;350.50;133.37;;;;;;;11.11;59.58;99545.34;342270;28;932;-70
2022/01/04 00:02:39;;;;;;;350.58;132.27;;;;;;;11.11;59.65;99545.34;342433;28;1286;-70
2022/01/04 00:02:50;;;;;;;351.55;133.23;;;;;;;11.12;59.49;99544.41;341343;28;857;-70
2022/01/04 00:03:00;;;;;;;351.60;133.67;;;;;;;11.12;59.47;99547.88;342741;28;813;-70
2022/01/04 00:03:11;;;;;;;350.40;135.35;;;;;;;11.12;59.68;99541.81;339856;29;838;-70
2022/01/04 00:03:21;;;;;;;350.53;135.67;;;;;;;11.12;59.48;99541.81;338974;29;886;-70
2022/01/04 00:03:31;;;;;;;348.23;132.45;;;;;;;11.10;59.49;99551.50;338872;28;1582;-70
2022/01/04 00:03:42;;;;;;;348.07;130.80;;;;;;;11.10;59.54;99541.88;341278;28;849;-70
2022/01/04 00:03:52;;;;;;;346.98;128.38;;;;;;;11.11;59.24;99545.34;341449;28;842;-70
2022/01/04 00:04:03;;;;;;;347.40;128.53;;;;;;;11.13;59.36;99548.75;342715;28;1392;-70
2022/01/04 00:04:13;;;;;;;350.53;131.57;;;;;;;11.14;59.24;99547.81;342287;28;1678;-70
2022/01/04 00:04:24;;;;;;;351.57;133.90;;;;;;;11.14;59.47;99550.44;342635;28;1188;-70
2022/01/04 00:04:34;;;;;;;351.88;134.10;;;;;;;11.13;59.59;99552.22;342500;28;1008;-70
2022/01/04 00:04:44;;;;;;;348.77;130.43;;;;;;;11.14;59.33;99547.81;339850;28;875;-70
2022/01/04 00:04:55;;;;;;;348.10;128.77;;;;;;;11.14;59.25;99543.44;338776;28;1187;-70
2022/01/04 00:05:06;;;;;;;347.70;128.32;;;;;;;11.14;59.44;99545.19;341330;28;1300;-70
2022/01/04 00:05:16;;;;;;;348.52;129.57;;;;;;;11.12;59.53;99539.19;346508;28;1419;-71
2022/01/04 00:05:26;;;;;;;349.60;132.73;;;;;;;11.13;59.37;99546.13;342607;28;932;-70
2022/01/04 00:05:37;;;;;;;348.50;131.32;;;;;;;11.11;59.37;99547.97;341278;28;1437;-70
2022/01/04 00:05:47;;;;;;;348.47;131.47;;;;;;;11.12;59.46;99547.03;341240;28;1349;-70
2022/01/04 00:05:58;;;;;;;349.07;131.10;;;;;;;11.12;59.60;99554.91;342049;28;1160;-70
2022/01/04 00:06:09;;;;;;;350.17;131.60;;;;;;;11.12;59.54;99549.66;342769;28;941;-70
2022/01/04 00:06:19;;;;;;;349.67;128.98;;;;;;;11.12;59.44;99555.75;341329;28;1364;-70
2022/01/04 00:06:30;;;;;;;347.07;126.37;;;;;;;11.10;59.54;99546.25;341077;28;1192;-70
2022/01/04 00:06:40;;;;;;;347.50;127.17;;;;;;;11.11;59.52;99553.19;341381;28;617;-70
2022/01/04 00:06:51;;;;;;;349.25;130.00;;;;;;;11.10;59.58;99554.97;341346;28;805;-70
2022/01/04 00:07:01;;;;;;;350.43;131.83;;;;;;;11.12;59.47;99555.75;339927;29;961;-70
2022/01/04 00:07:11;;;;;;;348.63;129.52;;;;;;;11.10;59.47;99552.34;344171;28;872;-70
2022/01/04 00:07:22;;;;;;;346.97;126.97;;;;;;;11.10;59.41;99548.88;343416;28;1275;-70
2022/01/04 00:07:32;;;;;;;347.20;127.35;;;;;;;11.10;59.45;99551.50;341172;28;1758;-70
2022/01/04 00:07:43;;;;;;;350.98;130.85;;;;;;;11.10;59.76;99541.00;341016;28;1369;-70
2022/01/04 00:07:53;;;;;;;351.23;132.33;;;;;;;11.11;59.68;99550.56;342501;28;1292;-70
2022/01/04 00:08:08;;;;;;;351.05;131.88;;;;;;;11.10;59.63;99552.34;341232;28;1224;-70
2022/01/04 00:08:19;;;;;;;347.40;129.77;;;;;;;11.09;59.64;99553.25;342433;28;852;-70
2022/01/04 00:08:30;;;;;;;348.60;130.24;;;;;;;11.08;59.60;99548.09;340096;29;882;-70
2022/01/04 00:08:40;;;;;;;350.63;130.20;;;;;;;11.07;59.70;99551.63;343056;28;703;-70
2022/01/04 00:08:51;;;;;;;352.67;135.23;;;;;;;11.06;59.71;99553.38;343892;28;1021;-70
2022/01/04 00:09:04;;;;;;;350.90;133.07;;;;;;;11.06;59.91;99552.53;342452;28;1176;-70
2022/01/04 00:09:14;;;;;;;349.52;132.43;;;;;;;11.05;59.69;99548.22;339909;29;1179;-70
2022/01/04 00:09:25;;;;;;;349.83;132.25;;;;;;;11.07;59.92;99556.88;341142;28;1256;-70
2022/01/04 00:09:39;;;;;;;350.67;134.90;;;;;;;11.05;59.92;99549.06;340192;28;1252;-70
2022/01/04 00:09:52;;;;;;;352.73;139.55;;;;;;;11.03;60.01;99542.19;343374;28;1303;-70
2022/01/04 00:10:03;;;;;;;353.02;137.95;;;;;;;11.02;59.62;99546.59;339955;28;1296;-70
2022/01/04 00:10:20;;;;;;;350.27;131.00;;;;;;;11.00;59.94;99545.81;340189;29;900;-70
2022/01/04 00:10:30;;;;;;;349.23;129.32;;;;;;;11.00;60.14;99548.41;344086;28;1001;-70
2022/01/04 00:10:41;;;;;;;349.37;130.97;;;;;;;10.98;60.09;99542.41;339957;28;1247;-70
2022/01/04 00:10:55;;;;;;;349.73;131.40;;;;;;;10.97;60.07;99540.69;339822;28;1261;-70
2022/01/04 00:11:08;;;;;;;348.90;129.30;;;;;;;10.95;60.10;99548.63;342510;28;1255;-70
2022/01/04 00:11:31;;;;;;;347.40;129.02;;;;;;;10.93;60.00;99539.97;342423;28;1405;-70
2022/01/04 00:13:22;;;;;;;349.23;130.70;;;;;;;10.93;60.12;99545.22;339847;29;998;-70
2022/01/04 00:13:29;;;;;;;348.92;130.52;;;;;;;10.97;59.87;99545.94;344701;28;1001;-70
2022/01/04 00:13:39;;;;;;;349.58;131.68;;;;;;;10.96;60.04;99542.47;343863;28;1246;-70
2022/01/04 00:13:49;;;;;;;349.47;131.50;;;;;;;10.96;60.03;99539.84;344245;28;1505;-70
2022/01/04 00:14:00;;;;;;;348.50;129.23;;;;;;;10.95;60.16;99545.16;341198;28;1759;-70
2022/01/04 00:14:10;;;;;;;348.47;127.53;;;;;;;10.96;60.04;99544.22;344668;28;1719;-70
2022/01/04 00:14:21;;;;;;;350.02;129.85;;;;;;;10.96;59.96;99545.09;342401;28;861;-70
2022/01/04 00:14:31;;;;;;;350.33;131.40;;;;;;;10.95;60.01;99535.53;342929;28;970;-70
2022/01/04 00:14:42;;;;;;;351.05;135.15;;;;;;;10.95;60.03;99538.16;338185;28;1503;-70
2022/01/04 00:14:52;;;;;;;350.33;134.93;;;;;;;10.97;59.88;99546.78;341179;28;1278;-70
2022/01/04 00:15:04;;;;;;;350.25;135.02;;;;;;;10.97;59.89;99538.94;341428;28;869;-71
2022/01/04 00:15:14;;;;;;;350.80;133.57;;;;;;;10.97;59.85;99536.31;343939;28;1283;-70
2022/01/04 00:15:24;;;;;;;349.83;131.70;;;;;;;10.97;60.15;99538.94;342691;28;821;-70
2022/01/04 00:15:36;;;;;;;350.40;131.53;;;;;;;10.95;60.10;99538.16;341227;28;878;-70
2022/01/04 00:15:46;;;;;;;351.52;132.90;;;;;;;10.96;60.08;99545.09;341223;28;990;-70
2022/01/04 00:15:56;;;;;;;351.65;132.95;;;;;;;10.96;59.87;99545.09;342122;28;1559;-70
2022/01/04 00:16:08;;;;;;;350.70;131.97;;;;;;;10.95;59.93;99538.16;345243;28;974;-70
2022/01/04 00:16:18;;;;;;;348.90;130.48;;;;;;;10.96;60.01;99534.59;342397;28;1319;-70
2022/01/04 00:16:28;;;;;;;349.10;130.32;;;;;;;10.96;59.95;99539.84;340197;29;901;-70
2022/01/04 00:16:39;;;;;;;348.77;131.57;;;;;;;10.97;60.03;99541.53;341218;28;1080;-70
2022/01/04 00:16:50;;;;;;;348.98;132.32;;;;;;;10.96;60.13;99534.59;341169;28;897;-70
2022/01/04 00:17:00;;;;;;;350.20;134.40;;;;;;;10.96;60.04;99533.75;342431;28;1467;-70
2022/01/04 00:17:11;;;;;;;351.00;133.10;;;;;;;10.96;60.01;99539.84;342970;28;1358;-70
2022/01/04 00:17:21;;;;;;;351.60;133.97;;;;;;;10.96;59.95;99528.53;341302;28;1527;-70
2022/01/04 00:17:32;;;;;;;350.98;133.27;;;;;;;10.95;59.94;99532.91;341102;28;1193;-70
2022/01/04 00:17:42;;;;;;;350.17;134.03;;;;;;;10.95;59.93;99539.91;343967;28;1254;-70
2022/01/04 00:17:53;;;;;;;350.90;134.30;;;;;;;10.93;59.85;99539.97;342416;28;901;-70
2022/01/04 00:18:03;;;;;;;350.60;133.30;;;;;;;10.92;59.94;99538.28;344010;28;800;-69
2022/01/04 00:18:13;;;;;;;350.90;132.68;;;;;;;10.92;60.06;99535.66;342802;28;873;-70
2022/01/04 00:18:24;;;;;;;351.33;131.20;;;;;;;10.93;59.94;99537.34;341424;28;831;-69
2022/01/04 00:18:35;;;;;;;353.05;131.32;;;;;;;10.93;59.83;99529.50;342461;28;1234;-69
2022/01/04 00:18:46;;;;;;;352.60;130.97;;;;;;;10.94;60.21;99538.22;343790;28;1238;-69
2022/01/04 00:18:56;;;;;;;351.33;130.55;;;;;;;10.93;59.97;99529.50;341116;28;904;-69
2022/01/04 00:19:07;;;;;;;349.67;129.70;;;;;;;10.93;59.83;99534.75;342764;28;1054;-69
2022/01/04 00:19:17;;;;;;;351.50;132.70;;;;;;;10.94;59.92;99530.34;342364;28;1256;-70
2022/01/04 00:19:28;;;;;;;352.43;134.37;;;;;;;10.93;59.89;99534.75;339416;29;1228;-69
2022/01/04 00:19:38;;;;;;;353.45;136.88;;;;;;;10.93;60.17;99532.13;339575;28;1366;-69
2022/01/04 00:19:49;;;;;;;352.07;134.43;;;;;;;10.94;59.68;99535.59;339464;28;984;-70
2022/01/04 00:19:59;;;;;;;351.27;132.63;;;;;;;10.93;59.85;99534.75;342455;28;1232;-70
2022/01/04 00:20:11;;;;;;;349.50;129.77;;;;;;;10.93;59.88;99528.66;344071;28;825;-70
2022/01/04 00:20:21;;;;;;;349.38;130.50;;;;;;;10.93;59.74;99529.50;346541;28;1504;-70
2022/01/04 00:20:32;;;;;;;350.83;131.40;;;;;;;10.95;59.81;99534.66;343846;28;1385;-70
2022/01/04 00:20:42;;;;;;;351.07;132.47;;;;;;;10.95;59.73;99532.91;343973;28;880;-70
2022/01/04 00:20:53;;;;;;;352.37;134.20;;;;;;;10.96;59.74;99534.59;343276;28;1619;-69
2022/01/04 00:21:04;;;;;;;351.50;132.95;;;;;;;10.93;59.63;99534.75;344038;28;956;-69
2022/01/04 00:21:15;;;;;;;349.92;130.45;;;;;;;10.93;59.74;99529.50;342599;28;1581;-70
2022/01/04 00:21:25;;;;;;;349.90;131.40;;;;;;;10.93;59.79;99529.50;343974;28;1714;-70
2022/01/04 00:21:36;;;;;;;349.33;130.70;;;;;;;10.94;59.95;99527.72;342516;28;1110;-70
2022/01/04 00:21:46;;;;;;;350.63;133.30;;;;;;;10.95;59.69;99526.81;341059;28;1051;-70
2022/01/04 00:21:57;;;;;;;351.65;132.88;;;;;;;10.93;59.70;99524.25;338496;29;837;-69
2022/01/04 00:22:08;;;;;;;352.20;132.45;;;;;;;10.92;59.11;99533.03;341087;28;1463;-70
2022/01/04 00:22:18;;;;;;;351.92;131.35;;;;;;;10.95;59.79;99532.06;339992;28;1133;-70
2022/01/04 00:22:29;;;;;;;351.30;131.83;;;;;;;10.93;59.74;99534.75;337998;29;1304;-70
2022/01/04 00:22:39;;;;;;;349.20;130.48;;;;;;;10.93;59.83;99529.50;341382;28;845;-70
2022/01/04 00:22:49;;;;;;;349.43;132.47;;;;;;;10.93;59.76;99524.25;339961;29;833;-70
2022/01/04 00:23:00;;;;;;;349.03;132.03;;;;;;;10.94;59.60;99531.22;338599;29;854;-70
2022/01/04 00:23:10;;;;;;;349.00;133.20;;;;;;;10.94;59.50;99535.59;337286;29;893;-70
2022/01/04 00:23:21;;;;;;;349.57;131.20;;;;;;;10.94;59.37;99533.81;338633;29;1285;-70
2022/01/04 00:23:31;;;;;;;349.08;129.95;;;;;;;10.95;59.75;99532.06;337205;29;846;-70
2022/01/04 00:23:43;;;;;;;349.00;130.63;;;;;;;10.93;59.68;99529.50;339761;28;1193;-69
2022/01/04 00:23:53;;;;;;;349.80;134.27;;;;;;;10.93;59.71;99537.34;339715;29;1127;-69
2022/01/04 00:24:04;;;;;;;350.13;134.93;;;;;;;10.93;59.82;99534.75;342253;28;1540;-69
2022/01/04 00:24:14;;;;;;;349.50;133.80;;;;;;;10.93;59.82;99537.34;343296;28;1802;-69
2022/01/04 00:24:25;;;;;;;349.35;130.70;;;;;;;10.94;59.52;99530.34;343530;28;2323;-69
2022/01/04 00:24:36;;;;;;;350.70;129.87;;;;;;;10.94;59.49;99530.34;342384;28;1489;-69
2022/01/04 00:24:46;;;;;;;352.23;130.15;;;;;;;10.95;59.54;99537.28;341237;29;901;-69
2022/01/04 00:24:57;;;;;;;352.03;131.10;;;;;;;10.96;59.51;99539.00;341077;29;1190;-69
2022/01/04 00:25:08;;;;;;;350.67;131.73;;;;;;;10.95;59.73;99530.28;342535;28;841;-69
2022/01/04 00:25:18;;;;;;;350.63;130.00;;;;;;;10.95;59.59;99532.91;342485;28;1434;-69
2022/01/04 00:25:28;;;;;;;350.30;127.78;;;;;;;10.95;59.71;99527.66;342637;28;1011;-69
2022/01/04 00:25:39;;;;;;;351.50;129.23;;;;;;;10.93;59.60;99534.75;342452;28;846;-69
2022/01/04 00:25:49;;;;;;;351.27;131.43;;;;;;;10.94;59.60;99536.44;341166;28;1121;-69
2022/01/04 00:26:00;;;;;;;351.93;131.37;;;;;;;10.93;59.61;99534.75;341183;29;928;-69
2022/01/04 00:26:10;;;;;;;351.02;129.43;;;;;;;10.91;59.59;99535.72;343879;28;829;-69
2022/01/04 00:26:20;;;;;;;350.00;129.07;;;;;;;10.91;59.86;99541.81;343926;28;694;-69
2022/01/04 00:26:31;;;;;;;349.45;130.85;;;;;;;10.90;59.85;99540.09;343767;28;1363;-69
2022/01/04 00:26:41;;;;;;;350.53;132.40;;;;;;;10.92;59.68;99542.66;345198;28;896;-69
2022/01/04 00:26:52;;;;;;;352.23;132.38;;;;;;;10.92;59.59;99543.50;346477;28;2187;-69
2022/01/04 00:27:02;;;;;;;351.30;130.43;;;;;;;10.91;59.86;99535.72;345192;28;1188;-69
2022/01/04 00:27:13;;;;;;;350.40;129.35;;;;;;;10.92;59.79;99543.50;342497;28;1306;-69
2022/01/04 00:27:23;;;;;;;348.20;127.50;;;;;;;10.91;59.83;99540.97;342496;28;1216;-69
2022/01/04 00:27:34;;;;;;;349.15;129.05;;;;;;;10.89;59.73;99535.78;343792;28;1719;-69
2022/01/04 00:27:44;;;;;;;350.37;131.27;;;;;;;10.89;60.05;99545.41;343730;28;1181;-69
2022/01/04 00:27:54;;;;;;;348.55;129.77;;;;;;;10.90;59.93;99542.72;341271;29;908;-69
2022/01/04 00:28:07;;;;;;;348.30;129.67;;;;;;;10.90;60.15;99541.88;343719;28;1473;-69
2022/01/04 00:28:17;;;;;;;349.50;131.57;;;;;;;10.92;59.90;99542.66;338980;28;1196;-70
2022/01/04 00:28:28;;;;;;;351.43;135.83;;;;;;;10.90;59.90;99534.88;340129;28;1275;-70
2022/01/04 00:28:38;;;;;;;351.60;136.85;;;;;;;10.88;59.72;99536.69;339441;29;839;-70
2022/01/04 00:28:48;;;;;;;350.57;134.70;;;;;;;10.89;59.86;99543.66;345272;28;1200;-69
2022/01/04 00:28:59;;;;;;;350.90;133.98;;;;;;;10.89;59.96;99542.78;344327;28;876;-69
2022/01/04 00:29:09;;;;;;;351.30;133.60;;;;;;;10.89;59.73;99538.41;343765;28;1641;-69
2022/01/04 00:29:20;;;;;;;351.43;134.57;;;;;;;10.90;59.91;99540.09;342401;28;1178;-70
2022/01/04 00:29:30;;;;;;;350.23;131.80;;;;;;;10.90;59.80;99544.50;342444;28;1078;-70
2022/01/04 00:29:40;;;;;;;348.83;130.97;;;;;;;10.89;59.73;99542.78;343671;28;1077;-70
2022/01/04 00:29:51;;;;;;;351.27;129.38;;;;;;;10.87;59.62;99535.00;344920;28;1230;-70
2022/01/04 00:30:01;;;;;;;349.77;127.93;;;;;;;10.88;59.84;99536.69;345082;28;1531;-70
2022/01/04 00:30:12;;;;;;;350.00;127.30;;;;;;;10.89;59.79;99532.31;343934;28;1010;-70
2022/01/04 00:30:28;;;;;;;347.23;127.30;;;;;;;10.89;59.95;99535.78;339918;29;1189;-70
2022/01/04 00:30:39;;;;;;;349.95;131.50;;;;;;;10.87;60.05;99535.00;342556;28;928;-70
2022/01/04 00:30:49;;;;;;;349.45;131.23;;;;;;;10.88;59.92;99536.69;342420;28;846;-70
2022/01/04 00:31:00;;;;;;;348.70;130.50;;;;;;;10.88;59.87;99526.22;343928;28;974;-70
2022/01/04 00:31:10;;;;;;;350.93;132.10;;;;;;;10.88;59.84;99531.47;339794;29;1214;-70
2022/01/04 00:31:20;;;;;;;352.35;134.75;;;;;;;10.89;60.16;99533.16;342511;28;939;-70
2022/01/04 00:31:31;;;;;;;352.30;135.70;;;;;;;10.88;60.02;99531.47;343563;28;1381;-70
2022/01/04 00:31:41;;;;;;;350.73;135.43;;;;;;;10.89;59.89;99535.78;342319;28;1450;-70
2022/01/04 00:31:52;;;;;;;351.13;134.50;;;;;;;10.89;59.82;99535.78;343876;28;1453;-70
2022/01/04 00:32:02;;;;;;;349.48;131.75;;;;;;;10.89;59.97;99530.56;346503;28;983;-70
2022/01/04 00:32:13;;;;;;;348.55;128.30;;;;;;;10.88;59.98;99533.25;345199;28;924;-70
2022/01/04 00:32:23;;;;;;;348.90;125.87;;;;;;;10.87;59.77;99535.00;343724;28;1320;-70
2022/01/04 00:32:34;;;;;;;350.53;126.13;;;;;;;10.88;59.98;99535.84;342508;28;1309;-70
2022/01/04 00:32:44;;;;;;;351.30;128.17;;;;;;;10.87;60.01;99537.63;339863;29;914;-70
2022/01/04 00:32:55;;;;;;;350.40;129.60;;;;;;;10.87;59.98;99535.00;341193;28;1422;-70
2022/01/04 00:33:06;;;;;;;351.98;131.82;;;;;;;10.87;60.08;99540.25;341917;28;2318;-70
2022/01/04 00:33:17;;;;;;;353.02;131.77;;;;;;;10.85;59.82;99536.84;343903;28;853;-70
2022/01/04 00:33:27;;;;;;;352.02;130.90;;;;;;;10.84;60.22;99545.59;343867;28;891;-70
2022/01/04 00:33:38;;;;;;;349.63;128.20;;;;;;;10.84;59.94;99535.13;342420;28;1215;-70
2022/01/04 00:33:49;;;;;;;348.87;130.13;;;;;;;10.81;60.29;99537.91;345136;28;1188;-70
2022/01/04 00:33:59;;;;;;;348.45;129.48;;;;;;;10.83;60.12;99540.47;342578;28;1016;-70
2022/01/04 00:34:10;;;;;;;349.73;130.43;;;;;;;10.82;60.22;99536.16;341112;29;1173;-70
2022/01/04 00:34:20;;;;;;;348.88;126.70;;;;;;;10.81;60.29;99535.28;342214;28;1927;-70
2022/01/04 00:34:30;;;;;;;348.93;128.03;;;;;;;10.82;60.36;99537.00;341621;28;1805;-70
2022/01/04 00:34:41;;;;;;;347.47;127.40;;;;;;;10.82;60.37;99536.16;343605;28;1235;-70
2022/01/04 00:34:52;;;;;;;349.27;129.60;;;;;;;10.82;60.17;99531.75;342465;28;983;-70
2022/01/04 00:35:03;;;;;;;350.02;130.70;;;;;;;10.83;60.09;99541.28;342588;28;880;-70
2022/01/04 00:35:13;;;;;;;350.35;130.82;;;;;;;10.82;60.27;99542.22;343908;28;809;-70
2022/01/04 00:35:24;;;;;;;349.57;128.53;;;;;;;10.82;60.36;99539.63;343213;28;1735;-70
2022/01/04 00:35:34;;;;;;;349.98;126.63;;;;;;;10.83;60.18;99538.66;343866;28;872;-70
2022/01/04 00:35:45;;;;;;;351.67;127.87;;;;;;;10.83;60.50;99538.66;343737;28;864;-70
2022/01/04 00:35:55;;;;;;;350.35;128.20;;;;;;;10.84;60.43;99535.13;341195;29;1016;-70
2022/01/04 00:36:06;;;;;;;350.63;130.37;;;;;;;10.82;60.36;99534.38;341117;29;1173;-70
2022/01/04 00:36:17;;;;;;;350.80;131.43;;;;;;;10.84;60.33;99539.53;341216;29;913;-70
2022/01/04 00:36:27;;;;;;;351.13;133.07;;;;;;;10.84;60.27;99543.00;341136;29;968;-70
2022/01/04 00:36:37;;;;;;;349.50;130.05;;;;;;;10.85;60.27;99542.06;343780;28;1306;-70
2022/01/04 00:36:48;;;;;;;349.03;127.93;;;;;;;10.83;59.89;99543.91;343875;28;813;-70
2022/01/04 00:36:58;;;;;;;347.83;123.72;;;;;;;10.84;60.44;99539.53;343710;28;1579;-70
2022/01/04 00:37:09;;;;;;;346.43;123.50;;;;;;;10.81;60.40;99540.53;342600;28;940;-70
2022/01/04 00:37:19;;;;;;;348.50;125.93;;;;;;;10.81;60.22;99540.53;342524;28;872;-70
2022/01/04 00:37:29;;;;;;;349.40;128.55;;;;;;;10.81;60.30;99545.78;345036;28;1445;-70
2022/01/04 00:37:40;;;;;;;350.97;130.17;;;;;;;10.81;60.46;99545.78;343820;28;1046;-70
2022/01/04 00:37:50;;;;;;;350.58;126.68;;;;;;;10.81;60.34;99535.28;341134;29;1338;-70
2022/01/04 00:38:01;;;;;;;350.63;126.47;;;;;;;10.83;60.25;99548.31;342358;28;1523;-70
2022/01/04 00:38:11;;;;;;;350.77;124.65;;;;;;;10.82;60.37;99542.22;342497;28;845;-70
2022/01/04 00:38:21;;;;;;;347.87;123.57;;;;;;;10.82;60.38;99542.22;345194;28;909;-70
2022/01/04 00:38:32;;;;;;;348.70;123.45;;;;;;;10.83;60.61;99541.28;343835;28;964;-70
2022/01/04 00:38:43;;;;;;;348.00;124.73;;;;;;;10.82;60.48;99541.38;343914;28;991;-70
2022/01/04 00:38:53;;;;;;;348.33;126.03;;;;;;;10.82;60.33;99550.09;341328;29;802;-70
2022/01/04 00:39:03;;;;;;;346.85;125.30;;;;;;;10.83;60.51;99545.69;341158;29;1017;-70
2022/01/04 00:39:14;;;;;;;347.23;124.50;;;;;;;10.84;60.36;99550.00;341227;29;869;-70
2022/01/04 00:39:24;;;;;;;348.20;126.93;;;;;;;10.84;60.16;99550.84;343819;28;1223;-70
2022/01/04 00:39:35;;;;;;;350.00;129.05;;;;;;;10.84;60.15;99544.75;342377;28;1417;-70
2022/01/04 00:39:45;;;;;;;350.37;132.40;;;;;;;10.83;60.26;99540.47;342333;28;1044;-70
2022/01/04 00:39:55;;;;;;;349.83;129.18;;;;;;;10.83;60.54;99543.09;341126;28;1192;-70
2022/01/04 00:40:06;;;;;;;349.43;130.23;;;;;;;10.81;60.26;99537.06;345117;28;1404;-70
2022/01/04 00:40:17;;;;;;;348.70;129.07;;;;;;;10.80;60.38;99543.22;343891;28;1157;-70
2022/01/04 00:40:27;;;;;;;350.00;133.07;;;;;;;10.77;60.67;99544.19;344789;28;1656;-70
2022/01/04 00:40:37;;;;;;;349.60;130.00;;;;;;;10.76;60.59;99545.13;343836;28;955;-70
2022/01/04 00:40:48;;;;;;;350.00;130.00;;;;;;;10.76;60.72;99541.66;342430;28;1180;-71
2022/01/04 00:40:58;;;;;;;347.67;126.37;;;;;;;10.76;60.59;99545.13;342530;28;1109;-70
2022/01/04 00:41:09;;;;;;;348.23;127.40;;;;;;;10.76;60.56;99542.50;343568;28;2198;-70
2022/01/04 00:41:19;;;;;;;349.48;127.60;;;;;;;10.76;60.80;99547.72;340998;29;1610;-70
2022/01/04 00:41:29;;;;;;;350.20;128.60;;;;;;;10.75;60.71;99540.78;343919;28;967;-70
2022/01/04 00:41:40;;;;;;;350.13;129.15;;;;;;;10.76;60.81;99549.50;342472;28;1448;-70
2022/01/04 00:41:50;;;;;;;348.37;128.67;;;;;;;10.76;60.88;99552.13;342566;28;1035;-70
2022/01/04 00:42:01;;;;;;;346.85;125.60;;;;;;;10.75;60.54;99542.56;342496;28;928;-70
2022/01/04 00:42:11;;;;;;;347.07;124.23;;;;;;;10.73;60.63;99537.38;341443;28;1744;-70
2022/01/04 00:42:21;;;;;;;346.75;123.32;;;;;;;10.74;60.83;99544.31;341275;29;814;-70
2022/01/04 00:42:32;;;;;;;347.73;124.97;;;;;;;10.75;60.76;99545.19;343915;28;1278;-70
2022/01/04 00:42:42;;;;;;;345.60;124.03;;;;;;;10.74;60.92;99552.19;342427;28;1179;-70
2022/01/04 00:42:55;;;;;;;346.15;122.93;;;;;;;10.72;60.96;99548.78;339882;28;1409;-70
2022/01/04 00:43:06;;;;;;;348.25;125.47;;;;;;;10.70;60.92;99545.38;346040;28;1456;-70
2022/01/04 00:43:16;;;;;;;348.23;125.78;;;;;;;10.69;60.79;99541.06;343943;28;897;-70
2022/01/04 00:43:26;;;;;;;346.00;125.67;;;;;;;10.69;60.82;99541.06;342411;28;1217;-70
2022/01/04 00:43:37;;;;;;;345.40;125.25;;;;;;;10.66;61.05;99541.19;342538;28;810;-70
2022/01/04 00:43:47;;;;;;;347.07;127.83;;;;;;;10.66;60.91;99542.03;341154;29;920;-70
2022/01/04 00:43:58;;;;;;;349.07;128.50;;;;;;;10.66;60.33;99542.03;343869;28;937;-70
2022/01/04 00:44:08;;;;;;;348.55;128.15;;;;;;;10.67;60.65;99542.88;343928;28;975;-70
2022/01/04 00:44:18;;;;;;;346.87;125.97;;;;;;;10.66;60.91;99541.19;342569;28;955;-70
2022/01/04 00:44:29;;;;;;;347.13;126.50;;;;;;;10.69;60.83;99543.66;341209;29;1087;-70
2022/01/04 00:44:39;;;;;;;346.90;126.03;;;;;;;10.69;60.94;99540.19;343498;28;1318;-70
2022/01/04 00:44:50;;;;;;;346.65;126.03;;;;;;;10.70;60.54;99537.53;345142;28;1436;-70
2022/01/04 00:45:00;;;;;;;345.87;126.03;;;;;;;10.68;60.68;99541.97;344403;28;1592;-70
2022/01/04 00:45:10;;;;;;;347.52;126.38;;;;;;;10.68;60.95;99541.97;343972;28;917;-70
2022/01/04 00:45:27;;;;;;;349.50;128.23;;;;;;;10.69;60.91;99543.66;342539;28;1419;-70
2022/01/04 00:45:38;;;;;;;347.80;124.85;;;;;;;10.68;60.99;99547.19;345162;28;866;-70
2022/01/04 00:45:49;;;;;;;347.00;125.55;;;;;;;10.69;61.07;99543.66;342311;28;1441;-70
2022/01/04 00:46:00;;;;;;;345.90;125.13;;;;;;;10.68;60.73;99548.97;343930;28;1375;-70
2022/01/04 00:46:16;;;;;;;348.98;129.38;;;;;;;10.67;60.71;99540.25;341175;29;865;-70
2022/01/04 00:46:26;;;;;;;350.75;129.98;;;;;;;10.68;60.71;99543.72;340989;29;1376;-70
2022/01/04 00:46:37;;;;;;;347.80;126.20;;;;;;;10.66;60.98;99542.03;343775;28;1195;-70
2022/01/04 00:46:47;;;;;;;346.90;126.10;;;;;;;10.67;60.82;99542.88;345097;28;1398;-70
2022/01/04 00:46:59;;;;;;;348.20;126.03;;;;;;;10.66;61.26;99544.66;345228;28;912;-70
2022/01/04 00:47:10;;;;;;;349.75;127.07;;;;;;;10.66;60.92;99541.19;342583;28;881;-70
2022/01/04 00:47:26;;;;;;;349.50;127.13;;;;;;;10.64;61.11;99545.63;341164;29;957;-70
2022/01/04 00:49:09;;;;;;;347.00;126.07;;;;;;;10.64;61.02;99543.00;343891;28;993;-70
2022/01/04 00:49:22;;;;;;;346.70;125.47;;;;;;;10.64;61.06;99550.84;342694;28;2134;-70
2022/01/04 00:49:32;;;;;;;349.05;128.13;;;;;;;10.64;60.75;99548.25;341135;28;1302;-70
2022/01/04 00:49:42;;;;;;;351.07;129.30;;;;;;;10.63;61.14;99554.38;339048;29;1553;-70
2022/01/04 00:49:53;;;;;;;351.97;130.40;;;;;;;10.63;61.37;99543.94;342599;28;877;-70
2022/01/04 00:50:03;;;;;;;350.07;128.63;;;;;;;10.62;61.10;99544.84;342450;28;814;-70
2022/01/04 00:50:14;;;;;;;349.15;125.30;;;;;;;10.59;61.31;99545.81;342351;28;1060;-70
2022/01/04 00:50:24;;;;;;;348.83;124.77;;;;;;;10.58;61.35;99551.13;339929;29;811;-70
2022/01/04 00:50:35;;;;;;;348.08;125.13;;;;;;;10.57;61.34;99552.03;343827;28;1212;-70
2022/01/04 00:50:46;;;;;;;348.33;125.53;;;;;;;10.57;61.20;99549.41;345135;28;1577;-70
2022/01/04 00:50:56;;;;;;;348.80;127.63;;;;;;;10.57;61.42;99547.66;346623;28;913;-70
2022/01/04 00:51:07;;;;;;;348.80;128.88;;;;;;;10.57;61.08;99549.41;342439;28;1202;-70
2022/01/04 00:51:17;;;;;;;349.57;132.63;;;;;;;10.57;61.45;99546.78;343705;28;1577;-70
2022/01/04 00:51:27;;;;;;;349.27;132.23;;;;;;;10.57;61.42;99552.03;345222;28;882;-70
2022/01/04 00:51:39;;;;;;;348.70;130.67;;;;;;;10.58;61.24;99553.72;341065;29;1285;-70
2022/01/04 00:51:51;;;;;;;349.20;128.32;;;;;;;10.58;61.29;99553.72;341287;29;952;-70
2022/01/04 00:52:02;;;;;;;349.77;128.68;;;;;;;10.57;61.46;99552.03;345102;28;1279;-70
2022/01/04 00:52:16;;;;;;;349.05;125.93;;;;;;;10.58;61.07;99551.13;343843;28;843;-70
2022/01/04 00:52:26;;;;;;;347.23;124.28;;;;;;;10.59;61.47;99551.06;343807;28;1421;-70
2022/01/04 00:52:37;;;;;;;348.47;126.00;;;;;;;10.59;61.33;99545.81;341206;29;1003;-70
2022/01/04 00:52:47;;;;;;;349.95;129.73;;;;;;;10.59;61.21;99550.19;343805;28;1336;-70
2022/01/04 00:52:58;;;;;;;351.50;131.17;;;;;;;10.58;61.50;99548.50;342274;28;1633;-70